createdAt,value
2022-10-19T00:01:28.838Z,88.06
2022-10-19T00:03:57.326Z,87.90
2022-10-19T00:06:29.274Z,87.96
2022-10-19T00:09:04.750Z,88.07
2022-10-19T00:11:37.630Z,88.40
2022-10-19T00:14:08.056Z,88.40
2022-10-19T00:16:38.443Z,88.50
2022-10-19T00:19:12.385Z,88.66
2022-10-19T00:21:43.354Z,88.90
2022-10-19T00:24:11.668Z,89.13
2022-10-19T00:26:40.073Z,89.00
2022-10-19T00:29:08.690Z,89.27
2022-10-19T00:31:36.870Z,89.47
2022-10-19T00:34:05.082Z,89.63
2022-10-19T00:36:36.273Z,89.74
2022-10-19T00:39:05.995Z,89.89
2022-10-19T00:41:36.224Z,90.01
2022-10-19T00:44:11.781Z,90.00
2022-10-19T00:46:43.715Z,89.97
2022-10-19T00:49:25.048Z,90.22
2022-10-19T00:52:03.000Z,90.27
2022-10-19T00:54:33.664Z,90.39
2022-10-19T00:57:03.426Z,90.58
2022-10-19T00:59:32.857Z,91.11
2022-10-19T01:02:03.697Z,91.19
2022-10-19T01:04:35.146Z,91.56
2022-10-19T01:07:05.355Z,91.73
2022-10-19T01:09:33.878Z,91.86
2022-10-19T01:12:21.833Z,91.91
2022-10-19T01:15:11.687Z,91.90
2022-10-19T01:18:12.082Z,91.78
2022-10-19T01:21:04.728Z,91.75
2022-10-19T01:23:44.683Z,91.82
2022-10-19T01:26:38.365Z,91.80
2022-10-19T01:29:48.078Z,91.77
2022-10-19T01:32:55.326Z,91.79
2022-10-19T01:35:34.851Z,91.86
2022-10-19T01:38:09.225Z,91.53
2022-10-19T01:41:11.311Z,91.35
2022-10-19T01:43:55.469Z,91.11
2022-10-19T01:46:32.402Z,90.65
2022-10-19T01:49:09.990Z,90.66
2022-10-19T01:51:43.968Z,90.30
2022-10-19T01:54:16.371Z,90.04
2022-10-19T01:56:47.712Z,90.05
2022-10-19T01:59:26.459Z,90.10
2022-10-19T02:01:58.277Z,90.33
2022-10-19T02:04:27.277Z,90.49
2022-10-19T02:06:55.988Z,90.71
2022-10-19T02:09:24.098Z,90.56
2022-10-19T02:11:57.618Z,90.93
2022-10-19T02:14:37.946Z,91.32
2022-10-19T02:17:10.201Z,91.48
2022-10-19T02:19:38.343Z,91.81
2022-10-19T02:22:07.820Z,92.21
2022-10-19T02:24:35.933Z,92.45
2022-10-19T02:27:06.647Z,92.39
2022-10-19T02:29:37.072Z,92.46
2022-10-19T02:32:09.236Z,92.56
2022-10-19T02:34:39.655Z,92.55
2022-10-19T02:37:07.858Z,92.56
2022-10-19T02:39:36.119Z,92.56
2022-10-19T02:42:12.164Z,92.53
2022-10-19T02:45:02.644Z,92.46
2022-10-19T02:47:54.186Z,92.46
2022-10-19T02:50:23.534Z,92.46
2022-10-19T02:52:51.834Z,92.33
2022-10-19T02:55:19.986Z,92.16
2022-10-19T02:57:47.877Z,92.09
2022-10-19T03:00:16.098Z,92.00
2022-10-19T03:02:44.892Z,92.02
2022-10-19T03:05:12.947Z,91.89
2022-10-19T03:07:42.412Z,91.57
2022-10-19T03:10:10.373Z,91.38
2022-10-19T03:12:38.353Z,91.50
2022-10-19T03:15:06.931Z,91.41
2022-10-19T03:17:35.973Z,91.44
2022-10-19T03:20:07.713Z,91.22
2022-10-19T03:22:35.759Z,91.41
2022-10-19T03:25:04.128Z,91.64
2022-10-19T03:27:32.648Z,91.89
2022-10-19T03:30:04.366Z,92.22
2022-10-19T03:32:32.376Z,92.45
2022-10-19T03:35:00.344Z,92.07
2022-10-19T03:37:28.351Z,92.43
2022-10-19T03:39:56.286Z,92.38
2022-10-19T03:42:24.526Z,92.29
2022-10-19T03:44:52.597Z,92.41
2022-10-19T03:47:20.656Z,92.09
2022-10-19T03:49:50.377Z,92.18
2022-10-19T03:52:19.770Z,92.22
2022-10-19T03:54:51.281Z,92.28
2022-10-19T03:57:19.399Z,92.43
2022-10-19T03:59:47.378Z,92.74
2022-10-19T04:02:15.461Z,92.46
2022-10-19T04:04:44.518Z,92.61
2022-10-19T04:07:12.603Z,92.45
2022-10-19T04:09:40.680Z,92.46
2022-10-19T04:12:08.853Z,92.44
2022-10-19T04:14:52.423Z,92.71
2022-10-19T04:17:24.656Z,92.70
2022-10-19T04:19:52.729Z,92.45
2022-10-19T04:22:20.699Z,92.40
2022-10-19T04:24:48.712Z,92.32
2022-10-19T04:27:16.774Z,92.45
2022-10-19T04:29:44.832Z,92.55
2022-10-19T04:32:12.842Z,92.55
2022-10-19T04:34:41.030Z,92.38
2022-10-19T04:37:09.770Z,92.12
2022-10-19T04:39:41.192Z,91.89
2022-10-19T04:42:09.283Z,91.53
2022-10-19T04:44:37.687Z,91.07
2022-10-19T04:47:05.875Z,90.79
2022-10-19T04:49:34.026Z,90.66
2022-10-19T04:52:02.624Z,90.40
2022-10-19T04:54:30.931Z,90.32
2022-10-19T04:56:59.308Z,90.24
2022-10-19T04:59:30.481Z,89.98
2022-10-19T05:01:59.248Z,89.62
2022-10-19T05:04:29.084Z,88.73
2022-10-19T05:06:57.376Z,88.29
2022-10-19T05:09:25.512Z,88.25
2022-10-19T05:11:53.618Z,88.03
2022-10-19T05:14:21.921Z,87.77
2022-10-19T05:16:50.275Z,87.39
2022-10-19T05:19:18.604Z,87.14
2022-10-19T05:21:46.970Z,86.63
2022-10-19T05:24:14.974Z,86.51
2022-10-19T05:26:43.080Z,86.69
2022-10-19T05:29:13.385Z,86.56
2022-10-19T05:31:42.040Z,86.44
2022-10-19T05:34:10.153Z,85.97
2022-10-19T05:36:39.725Z,86.00
2022-10-19T05:39:17.033Z,85.98
2022-10-19T05:41:47.691Z,85.92
2022-10-19T05:44:22.037Z,85.66
2022-10-19T05:46:51.852Z,85.84
2022-10-19T05:49:21.632Z,85.90
2022-10-19T05:51:50.432Z,86.03
2022-10-19T05:54:20.367Z,86.17
2022-10-19T05:56:50.509Z,86.24
2022-10-19T05:59:20.494Z,86.37
2022-10-19T06:01:50.261Z,86.41
2022-10-19T06:04:20.214Z,86.16
2022-10-19T06:06:48.554Z,86.07
2022-10-19T06:09:16.999Z,86.02
2022-10-19T06:11:45.703Z,85.93
2022-10-19T06:14:16.402Z,85.39
2022-10-19T06:16:46.331Z,85.25
2022-10-19T06:19:15.188Z,85.27
2022-10-19T06:21:46.167Z,85.58
2022-10-19T06:24:15.988Z,85.24
2022-10-19T06:26:44.266Z,85.31
2022-10-19T06:29:12.725Z,85.01
2022-10-19T06:31:41.244Z,84.87
2022-10-19T06:34:09.484Z,84.76
2022-10-19T06:36:38.567Z,84.76
2022-10-19T06:39:07.864Z,84.95
2022-10-19T06:41:37.219Z,84.70
2022-10-19T06:44:21.058Z,84.31
2022-10-19T06:46:51.312Z,84.85
2022-10-19T06:49:22.643Z,84.66
2022-10-19T06:51:54.006Z,84.70
2022-10-19T06:54:25.619Z,84.61
2022-10-19T06:56:55.422Z,84.64
2022-10-19T06:59:26.650Z,84.22
2022-10-19T07:01:55.328Z,83.85
2022-10-19T07:04:26.647Z,83.30
2022-10-19T07:06:56.984Z,83.65
2022-10-19T07:09:25.480Z,83.74
2022-10-19T07:11:54.229Z,83.43
2022-10-19T07:14:28.861Z,83.19
2022-10-19T07:16:58.207Z,82.92
2022-10-19T07:19:26.975Z,83.30
2022-10-19T07:21:55.327Z,82.63
2022-10-19T07:24:23.643Z,82.84
2022-10-19T07:26:52.284Z,82.27
2022-10-19T07:29:20.705Z,81.80
2022-10-19T07:31:49.151Z,82.39
2022-10-19T07:34:17.715Z,82.22
2022-10-19T07:36:48.535Z,81.74
2022-10-19T07:39:17.671Z,81.53
2022-10-19T07:41:46.777Z,81.11
2022-10-19T07:44:16.295Z,80.88
2022-10-19T07:46:45.179Z,80.93
2022-10-19T07:49:16.658Z,81.28
2022-10-19T07:51:46.488Z,80.54
2022-10-19T07:54:15.483Z,80.65
2022-10-19T07:56:44.058Z,79.88
2022-10-19T07:59:14.557Z,80.05
2022-10-19T08:01:44.139Z,80.11
2022-10-19T08:04:55.571Z,78.72
2022-10-19T08:07:02.051Z,78.94
2022-10-19T08:09:52.086Z,79.54
2022-10-19T08:12:20.724Z,79.26
2022-10-19T08:14:50.403Z,78.55
2022-10-19T08:17:20.021Z,79.17
2022-10-19T08:19:48.749Z,78.72
2022-10-19T08:22:17.579Z,78.82
2022-10-19T08:24:46.232Z,78.62
2022-10-19T08:27:15.476Z,79.30
2022-10-19T08:29:44.160Z,79.26
2022-10-19T08:32:16.193Z,78.66
2022-10-19T08:34:45.499Z,77.58
2022-10-19T08:37:25.859Z,77.14
2022-10-19T08:40:02.798Z,77.73
2022-10-19T08:42:49.921Z,77.70
2022-10-19T08:45:22.497Z,76.66
2022-10-19T08:47:57.418Z,76.98
2022-10-19T08:50:35.361Z,77.48
2022-10-19T08:53:19.548Z,77.32
2022-10-19T08:55:50.934Z,78.57
2022-10-19T08:58:31.757Z,77.25
2022-10-19T09:01:14.228Z,77.27
2022-10-19T09:04:21.937Z,76.86
2022-10-19T09:07:31.396Z,76.62
2022-10-19T09:10:15.900Z,75.91
2022-10-19T09:13:00.692Z,76.19
2022-10-19T09:15:38.982Z,74.78
2022-10-19T09:18:28.529Z,75.68
2022-10-19T09:21:46.112Z,74.53
2022-10-19T09:24:47.947Z,74.16
2022-10-19T09:27:26.113Z,75.09
2022-10-19T09:29:56.412Z,75.91
2022-10-19T09:32:31.722Z,75.69
2022-10-19T09:35:03.530Z,76.08
2022-10-19T09:37:37.033Z,75.58
2022-10-19T09:40:06.693Z,75.11
2022-10-19T09:42:37.047Z,75.21
2022-10-19T09:45:17.752Z,75.09
2022-10-19T09:47:49.116Z,74.70
2022-10-19T09:50:24.216Z,74.94
2022-10-19T09:52:56.771Z,74.70
2022-10-19T09:55:44.390Z,73.90
2022-10-19T09:58:15.620Z,73.91
2022-10-19T10:00:47.405Z,73.73
2022-10-19T10:03:43.828Z,73.44
2022-10-19T10:06:17.466Z,73.60
2022-10-19T10:08:51.113Z,72.90
2022-10-19T10:11:30.348Z,72.48
2022-10-19T10:14:07.513Z,72.97
2022-10-19T10:16:38.386Z,72.24
2022-10-19T10:19:09.203Z,72.34
2022-10-19T10:21:48.516Z,72.50
2022-10-19T10:24:25.469Z,72.14
2022-10-19T10:26:57.062Z,69.92
2022-10-19T10:29:30.266Z,70.40
2022-10-19T10:32:20.359Z,70.39
2022-10-19T10:34:52.798Z,70.41
2022-10-19T10:37:35.081Z,69.25
2022-10-19T10:40:06.054Z,69.17
2022-10-19T10:42:43.756Z,68.38
2022-10-19T10:45:23.427Z,69.00
2022-10-19T10:47:52.714Z,68.95
2022-10-19T10:50:35.020Z,69.33
2022-10-19T10:53:06.541Z,69.61
2022-10-19T10:55:34.846Z,69.92
2022-10-19T10:58:15.633Z,69.52
2022-10-19T11:00:45.532Z,69.77
2022-10-19T11:03:24.080Z,68.66
2022-10-19T11:05:57.729Z,66.91
2022-10-19T11:08:41.387Z,65.65
2022-10-19T11:11:24.718Z,66.46
2022-10-19T11:14:19.108Z,67.14
2022-10-19T11:16:52.999Z,66.99
2022-10-19T11:19:27.670Z,67.15
2022-10-19T11:22:23.658Z,66.62
2022-10-19T11:25:18.649Z,66.90
2022-10-19T11:27:58.984Z,66.53
2022-10-19T11:30:28.091Z,66.07
2022-10-19T11:33:07.147Z,66.07
2022-10-19T11:35:54.427Z,66.04
2022-10-19T11:38:41.629Z,66.00
2022-10-19T11:41:17.761Z,64.91
2022-10-19T11:44:05.182Z,65.43
2022-10-19T11:46:42.997Z,66.16
2022-10-19T11:49:22.202Z,66.27
2022-10-19T11:51:59.423Z,66.93
2022-10-19T11:54:41.816Z,67.16
2022-10-19T11:57:30.074Z,67.83
2022-10-19T12:00:04.064Z,69.17
2022-10-19T12:02:45.108Z,69.70
2022-10-19T12:05:22.541Z,69.66
2022-10-19T12:08:05.036Z,70.03
2022-10-19T12:10:42.179Z,70.15
2022-10-19T12:13:14.614Z,70.22
2022-10-19T12:15:55.795Z,70.10
2022-10-19T12:18:23.903Z,70.15
2022-10-19T12:20:57.221Z,70.10
2022-10-19T12:23:31.361Z,70.50
2022-10-19T12:26:03.873Z,70.80
2022-10-19T12:28:35.500Z,70.97
2022-10-19T12:31:05.770Z,71.19
2022-10-19T12:33:36.854Z,71.15
2022-10-19T12:36:22.668Z,71.36
2022-10-19T12:38:59.652Z,71.91
2022-10-19T12:41:45.824Z,72.15
2022-10-19T12:44:47.692Z,71.95
2022-10-19T12:47:19.390Z,71.69
2022-10-19T12:49:58.189Z,71.54
2022-10-19T12:52:52.951Z,71.12
2022-10-19T12:55:35.027Z,71.11
2022-10-19T12:58:22.245Z,70.88
2022-10-19T13:01:04.062Z,71.71
2022-10-19T13:03:42.245Z,72.06
2022-10-19T13:06:16.146Z,71.64
2022-10-19T13:08:53.962Z,71.97
2022-10-19T13:11:22.705Z,72.03
2022-10-19T13:14:25.701Z,72.27
2022-10-19T13:16:58.732Z,72.44
2022-10-19T13:19:28.650Z,72.29
2022-10-19T13:22:02.686Z,71.87
2022-10-19T13:24:35.062Z,71.58
2022-10-19T13:27:03.654Z,71.91
2022-10-19T13:29:38.460Z,72.45
2022-10-19T13:32:43.572Z,72.75
2022-10-19T13:35:26.813Z,72.72
2022-10-19T13:38:17.049Z,73.34
2022-10-19T13:40:48.056Z,73.46
2022-10-19T13:43:41.178Z,74.34
2022-10-19T13:46:12.822Z,74.61
2022-10-19T13:49:04.526Z,74.90
2022-10-19T13:51:51.448Z,75.18
2022-10-19T13:54:47.012Z,74.99
2022-10-19T13:57:37.614Z,74.98
2022-10-19T14:00:18.422Z,74.76
2022-10-19T14:03:08.009Z,74.81
2022-10-19T14:06:04.175Z,74.54
2022-10-19T14:08:56.753Z,74.52
2022-10-19T14:11:35.460Z,74.38
2022-10-19T14:14:25.218Z,74.07
2022-10-19T14:16:58.247Z,73.74
2022-10-19T14:19:33.062Z,73.61
2022-10-19T14:22:23.666Z,73.43
2022-10-19T14:24:52.335Z,72.76
2022-10-19T14:27:24.977Z,72.50
2022-10-19T14:29:54.439Z,72.59
2022-10-19T14:32:27.673Z,72.81
2022-10-19T14:41:37.785Z,72.69
2022-10-19T14:44:43.190Z,72.71
2022-10-19T14:47:21.855Z,72.75
2022-10-19T14:49:51.538Z,72.80
2022-10-19T14:52:30.391Z,72.26
2022-10-19T14:55:00.466Z,71.98
2022-10-19T14:57:35.121Z,72.11
2022-10-19T15:00:15.252Z,71.86
2022-10-19T15:02:48.703Z,71.84
2022-10-19T15:05:24.499Z,71.98
2022-10-19T15:07:55.255Z,72.14
2022-10-19T15:10:44.982Z,72.53
2022-10-19T15:13:42.204Z,72.32
2022-10-19T15:16:32.070Z,72.49
2022-10-19T15:19:24.928Z,72.90
2022-10-19T15:22:21.821Z,72.82
2022-10-19T15:25:02.504Z,72.73
2022-10-19T15:27:48.069Z,72.63
2022-10-19T15:30:22.249Z,72.68
2022-10-19T15:32:55.648Z,72.63
2022-10-19T15:35:30.241Z,72.77
2022-10-19T15:38:06.661Z,72.77
2022-10-19T15:40:39.154Z,72.97
2022-10-19T15:43:37.115Z,73.00
2022-10-19T15:46:20.034Z,73.08
2022-10-19T15:48:58.437Z,73.02
2022-10-19T15:51:27.367Z,73.05
2022-10-19T15:54:02.558Z,73.16
2022-10-19T15:56:36.042Z,73.42
2022-10-19T15:59:20.574Z,73.56
2022-10-19T16:01:52.580Z,73.84
2022-10-19T16:04:22.852Z,73.96
2022-10-19T16:06:51.124Z,74.08
2022-10-19T16:09:21.945Z,74.40
2022-10-19T16:11:56.735Z,74.51
2022-10-19T16:14:27.018Z,74.76
2022-10-19T16:16:56.037Z,75.01
2022-10-19T16:19:24.698Z,75.16
2022-10-19T16:21:53.658Z,75.32
2022-10-19T16:24:22.105Z,75.40
2022-10-19T16:26:50.780Z,75.58
2022-10-19T16:29:19.108Z,75.84
2022-10-19T16:31:47.391Z,76.21
2022-10-19T16:34:15.904Z,76.65
2022-10-19T16:36:45.896Z,77.04
2022-10-19T16:39:15.621Z,77.32
2022-10-19T16:41:44.594Z,77.77
2022-10-19T16:44:23.319Z,77.96
2022-10-19T16:47:00.154Z,78.07
2022-10-19T16:49:30.042Z,78.03
2022-10-19T16:52:02.168Z,78.15
2022-10-19T16:54:33.506Z,78.13
2022-10-19T16:57:08.638Z,78.03
2022-10-19T16:59:39.534Z,77.97
2022-10-19T17:02:11.412Z,77.91
2022-10-19T17:04:41.740Z,77.91
2022-10-19T17:07:18.991Z,78.06
2022-10-19T17:10:00.294Z,78.03
2022-10-19T17:12:31.781Z,78.07
2022-10-19T17:15:29.937Z,78.06
2022-10-19T17:17:48.679Z,78.10
2022-10-19T17:20:18.118Z,78.01
2022-10-19T17:22:48.158Z,78.04
2022-10-19T17:25:17.160Z,78.08
2022-10-19T17:27:47.967Z,78.26
2022-10-19T17:30:21.963Z,78.21
2022-10-19T17:32:54.614Z,78.21
2022-10-19T17:35:23.070Z,78.26
2022-10-19T17:37:52.179Z,78.48
2022-10-19T17:40:22.835Z,78.59
2022-10-19T17:42:52.898Z,78.56
2022-10-19T17:45:23.065Z,78.41
2022-10-19T17:47:51.623Z,78.38
2022-10-19T17:50:21.836Z,78.07
2022-10-19T17:52:53.068Z,77.93
2022-10-19T17:55:27.355Z,77.99
2022-10-19T17:57:57.561Z,77.96
2022-10-19T18:00:27.333Z,77.83
2022-10-19T18:02:57.145Z,77.60
2022-10-19T18:05:26.504Z,77.71
2022-10-19T18:08:02.242Z,77.93
2022-10-19T18:10:36.401Z,77.94
2022-10-19T18:13:07.166Z,77.92
2022-10-19T18:15:35.910Z,77.96
2022-10-19T18:18:04.673Z,77.93
2022-10-19T18:20:34.287Z,77.93
2022-10-19T18:23:05.875Z,77.78
2022-10-19T18:25:53.545Z,77.70
2022-10-19T18:28:22.936Z,77.78
2022-10-19T18:30:51.838Z,77.95
2022-10-19T18:33:20.291Z,78.04
2022-10-19T18:35:49.009Z,78.14
2022-10-19T18:38:28.895Z,78.22
2022-10-19T18:43:54.030Z,77.91
2022-10-19T18:46:26.914Z,78.31
2022-10-19T18:49:03.128Z,78.10
2022-10-19T18:51:33.718Z,78.10
2022-10-19T18:54:05.269Z,77.99
2022-10-19T18:56:38.320Z,78.07
2022-10-19T18:59:16.389Z,77.89
2022-10-19T19:01:45.881Z,77.93
2022-10-19T19:04:15.549Z,77.73
2022-10-19T19:06:47.951Z,77.65
2022-10-19T19:09:19.481Z,77.65
2022-10-19T19:11:48.592Z,77.58
2022-10-19T19:14:21.209Z,77.44
2022-10-19T19:16:52.659Z,77.55
2022-10-19T19:19:24.700Z,77.40
2022-10-19T19:21:58.336Z,77.44
2022-10-19T19:24:32.252Z,77.21
2022-10-19T19:27:01.463Z,77.40
2022-10-19T19:29:31.406Z,77.59
2022-10-19T19:32:00.175Z,77.73
2022-10-19T19:34:29.622Z,77.81
2022-10-19T19:37:00.881Z,77.78
2022-10-19T19:39:31.851Z,77.86
2022-10-19T19:42:01.937Z,77.93
2022-10-19T19:44:32.431Z,78.08
2022-10-19T19:47:03.109Z,78.30
2022-10-19T19:49:33.496Z,78.44
2022-10-19T19:52:05.364Z,78.59
2022-10-19T19:54:34.454Z,78.78
2022-10-19T19:57:03.276Z,78.71
2022-10-19T19:59:33.371Z,78.62
2022-10-19T20:02:02.629Z,78.56
2022-10-19T20:04:35.031Z,78.37
2022-10-19T20:07:05.961Z,78.39
2022-10-19T20:09:35.832Z,78.40
2022-10-19T20:12:05.573Z,78.64
2022-10-19T20:14:34.163Z,78.91
2022-10-19T20:17:02.686Z,78.77
2022-10-19T20:19:31.427Z,78.85
2022-10-19T20:22:00.483Z,79.20
2022-10-19T20:24:29.287Z,79.14
2022-10-19T20:26:58.502Z,79.00
2022-10-19T20:29:27.065Z,79.02
2022-10-19T20:31:55.580Z,78.86
2022-10-19T20:34:27.198Z,78.92
2022-10-19T20:36:56.711Z,79.03
2022-10-19T20:39:25.674Z,79.12
2022-10-19T20:41:55.183Z,79.03
2022-10-19T20:44:24.371Z,79.00
2022-10-19T20:46:53.514Z,78.90
2022-10-19T20:49:24.802Z,78.66
2022-10-19T20:51:55.719Z,78.50
2022-10-19T20:54:29.274Z,78.42
2022-10-19T20:57:01.825Z,78.39
2022-10-19T20:59:35.440Z,78.12
2022-10-19T21:02:06.685Z,78.03
2022-10-19T21:04:35.156Z,77.99
2022-10-19T21:07:05.162Z,77.88
2022-10-19T21:09:33.944Z,77.71
2022-10-19T21:12:02.313Z,77.68
2022-10-19T21:14:30.830Z,77.62
2022-10-19T21:17:00.368Z,77.43
2022-10-19T21:19:29.989Z,77.19
2022-10-19T21:22:02.351Z,77.07
2022-10-19T21:24:36.561Z,77.08
2022-10-19T21:27:09.387Z,77.05
2022-10-19T21:29:42.189Z,77.07
2022-10-19T21:32:10.705Z,77.09
2022-10-19T21:34:39.141Z,77.21
2022-10-19T21:37:08.401Z,77.32
2022-10-19T21:39:37.305Z,77.12
2022-10-19T21:42:09.175Z,76.96
2022-10-19T21:44:38.537Z,76.83
2022-10-19T21:47:08.071Z,76.78
2022-10-19T21:49:36.287Z,77.02
2022-10-19T21:52:04.672Z,77.16
2022-10-19T21:54:33.146Z,77.19
2022-10-19T21:57:02.961Z,77.34
2022-10-19T21:59:31.227Z,77.26
2022-10-19T22:01:59.895Z,77.48
2022-10-19T22:05:08.515Z,77.67
2022-10-19T22:07:37.326Z,77.64
2022-10-19T22:10:06.851Z,77.67
2022-10-19T22:12:38.256Z,77.50
2022-10-19T22:15:07.806Z,77.31
2022-10-19T22:17:36.038Z,76.92
2022-10-19T22:20:04.868Z,76.81
2022-10-19T22:22:33.468Z,77.00
2022-10-19T22:25:02.130Z,77.21
2022-10-19T22:27:30.534Z,77.37
2022-10-19T22:29:58.667Z,77.29
2022-10-19T22:32:26.733Z,77.18
2022-10-19T22:34:54.704Z,76.92
2022-10-19T22:37:22.770Z,77.18
2022-10-19T22:39:50.803Z,77.38
2022-10-19T22:42:18.792Z,77.34
2022-10-19T22:44:46.786Z,77.59
2022-10-19T22:47:14.775Z,77.57
2022-10-19T22:49:42.724Z,77.58
2022-10-19T22:52:11.576Z,77.51
2022-10-19T22:54:39.704Z,77.28
2022-10-19T22:57:08.298Z,77.11
2022-10-19T22:59:36.310Z,76.92
2022-10-19T23:02:04.779Z,76.67
2022-10-19T23:04:32.956Z,76.39
2022-10-19T23:07:01.155Z,76.22
2022-10-19T23:09:29.199Z,76.15
2022-10-19T23:11:57.217Z,75.98
2022-10-19T23:14:25.402Z,75.90
2022-10-19T23:16:53.378Z,75.80
2022-10-19T23:19:21.454Z,75.47
2022-10-19T23:21:49.594Z,75.34
2022-10-19T23:24:20.676Z,75.35
2022-10-19T23:26:48.829Z,75.12
2022-10-19T23:29:16.883Z,75.20
2022-10-19T23:31:44.891Z,75.50
2022-10-19T23:34:15.506Z,75.08
2022-10-19T23:36:43.658Z,74.76
2022-10-19T23:39:11.847Z,74.46
2022-10-19T23:41:39.904Z,74.40
2022-10-19T23:44:09.807Z,74.34
2022-10-19T23:46:40.852Z,74.04
2022-10-19T23:49:08.934Z,74.01
2022-10-19T23:51:37.794Z,74.08
2022-10-19T23:54:06.061Z,74.30
2022-10-19T23:56:34.222Z,74.37
2022-10-19T23:59:02.386Z,73.84
